sensor_id;sensor_type;location;lat;lon;timestamp;temperature;humidity
17954;DHT22;9102;53.548;9.926;2023-02-04T00:01:23;4.30;99.90
17954;DHT22;9102;53.548;9.926;2023-02-04T00:03:51;4.30;99.90
17954;DHT22;9102;53.548;9.926;2023-02-04T00:06:18;4.30;99.90
17954;DHT22;9102;53.548;9.926;2023-02-04T00:08:45;4.30;99.90
17954;DHT22;9102;53.548;9.926;2023-02-04T00:11:12;4.30;99.90
17954;DHT22;9102;53.548;9.926;2023-02-04T00:13:38;4.30;99.90
17954;DHT22;9102;53.548;9.926;2023-02-04T00:16:06;4.30;99.90
17954;DHT22;9102;53.548;9.926;2023-02-04T00:18:32;4.30;99.90
17954;DHT22;9102;53.548;9.926;2023-02-04T00:21:00;4.40;99.90
17954;DHT22;9102;53.548;9.926;2023-02-04T00:23:27;4.40;99.90
17954;DHT22;9102;53.548;9.926;2023-02-04T00:25:54;4.40;99.90
17954;DHT22;9102;53.548;9.926;2023-02-04T00:28:21;4.40;99.90
17954;DHT22;9102;53.548;9.926;2023-02-04T00:30:48;4.50;99.90
17954;DHT22;9102;53.548;9.926;2023-02-04T00:33:15;4.50;99.90
17954;DHT22;9102;53.548;9.926;2023-02-04T00:35:41;4.40;99.90
17954;DHT22;9102;53.548;9.926;2023-02-04T00:38:09;4.40;99.90
17954;DHT22;9102;53.548;9.926;2023-02-04T00:40:38;4.50;99.90
17954;DHT22;9102;53.548;9.926;2023-02-04T00:43:05;4.50;99.90
17954;DHT22;9102;53.548;9.926;2023-02-04T00:45:31;4.40;99.90
17954;DHT22;9102;53.548;9.926;2023-02-04T00:47:58;4.30;99.90
17954;DHT22;9102;53.548;9.926;2023-02-04T00:50:25;4.20;99.90
17954;DHT22;9102;53.548;9.926;2023-02-04T00:52:52;4.10;99.90
17954;DHT22;9102;53.548;9.926;2023-02-04T00:55:20;4.10;99.90
17954;DHT22;9102;53.548;9.926;2023-02-04T00:57:47;4.00;99.90
17954;DHT22;9102;53.548;9.926;2023-02-04T01:00:16;4.00;99.90
17954;DHT22;9102;53.548;9.926;2023-02-04T01:02:43;3.90;99.90
17954;DHT22;9102;53.548;9.926;2023-02-04T01:05:10;3.90;99.90
17954;DHT22;9102;53.548;9.926;2023-02-04T01:07:37;3.90;99.90
17954;DHT22;9102;53.548;9.926;2023-02-04T01:10:04;3.90;99.90
17954;DHT22;9102;53.548;9.926;2023-02-04T01:12:33;3.90;99.90
17954;DHT22;9102;53.548;9.926;2023-02-04T01:14:59;3.80;99.90
17954;DHT22;9102;53.548;9.926;2023-02-04T01:17:26;3.80;99.90
17954;DHT22;9102;53.548;9.926;2023-02-04T01:19:53;3.80;99.90
17954;DHT22;9102;53.548;9.926;2023-02-04T01:22:20;3.70;99.90
17954;DHT22;9102;53.548;9.926;2023-02-04T01:24:46;3.70;99.90
17954;DHT22;9102;53.548;9.926;2023-02-04T01:27:15;3.70;99.90
17954;DHT22;9102;53.548;9.926;2023-02-04T01:29:43;3.70;99.90
17954;DHT22;9102;53.548;9.926;2023-02-04T01:32:10;3.60;99.90
17954;DHT22;9102;53.548;9.926;2023-02-04T01:34:36;3.60;99.90
17954;DHT22;9102;53.548;9.926;2023-02-04T01:37:03;3.60;99.90
17954;DHT22;9102;53.548;9.926;2023-02-04T01:39:31;3.60;99.90
17954;DHT22;9102;53.548;9.926;2023-02-04T01:41:58;3.60;99.90
17954;DHT22;9102;53.548;9.926;2023-02-04T01:44:26;3.60;99.90
17954;DHT22;9102;53.548;9.926;2023-02-04T01:46:55;3.60;99.90
17954;DHT22;9102;53.548;9.926;2023-02-04T01:49:22;3.60;99.90
17954;DHT22;9102;53.548;9.926;2023-02-04T01:51:49;3.60;99.90
17954;DHT22;9102;53.548;9.926;2023-02-04T01:54:16;3.60;99.90
17954;DHT22;9102;53.548;9.926;2023-02-04T01:56:46;3.60;99.90
17954;DHT22;9102;53.548;9.926;2023-02-04T01:59:15;3.60;99.90
17954;DHT22;9102;53.548;9.926;2023-02-04T02:01:44;3.70;99.90
17954;DHT22;9102;53.548;9.926;2023-02-04T02:04:16;3.70;99.90
17954;DHT22;9102;53.548;9.926;2023-02-04T02:06:47;3.80;99.90
17954;DHT22;9102;53.548;9.926;2023-02-04T02:09:15;3.70;99.90
17954;DHT22;9102;53.548;9.926;2023-02-04T02:11:42;3.70;99.90
17954;DHT22;9102;53.548;9.926;2023-02-04T02:14:09;3.80;99.90
17954;DHT22;9102;53.548;9.926;2023-02-04T02:16:35;3.80;99.90
17954;DHT22;9102;53.548;9.926;2023-02-04T02:19:03;3.70;99.90
17954;DHT22;9102;53.548;9.926;2023-02-04T02:21:38;3.80;99.90
17954;DHT22;9102;53.548;9.926;2023-02-04T02:24:24;3.80;99.90
17954;DHT22;9102;53.548;9.926;2023-02-04T02:26:51;3.80;99.90
17954;DHT22;9102;53.548;9.926;2023-02-04T02:29:18;3.80;99.90
17954;DHT22;9102;53.548;9.926;2023-02-04T02:31:46;3.80;99.90
17954;DHT22;9102;53.548;9.926;2023-02-04T02:34:12;3.80;99.90
17954;DHT22;9102;53.548;9.926;2023-02-04T02:36:39;3.90;99.90
17954;DHT22;9102;53.548;9.926;2023-02-04T02:39:06;3.90;99.90
17954;DHT22;9102;53.548;9.926;2023-02-04T02:41:35;3.90;99.90
17954;DHT22;9102;53.548;9.926;2023-02-04T02:44:02;3.90;99.90
17954;DHT22;9102;53.548;9.926;2023-02-04T02:46:29;3.90;99.90
17954;DHT22;9102;53.548;9.926;2023-02-04T02:48:55;3.90;99.90
17954;DHT22;9102;53.548;9.926;2023-02-04T02:51:22;3.90;99.90
17954;DHT22;9102;53.548;9.926;2023-02-04T02:53:50;3.90;99.90
17954;DHT22;9102;53.548;9.926;2023-02-04T02:56:17;3.90;99.90
17954;DHT22;9102;53.548;9.926;2023-02-04T02:58:46;3.90;99.90
17954;DHT22;9102;53.548;9.926;2023-02-04T03:01:13;3.70;99.90
17954;DHT22;9102;53.548;9.926;2023-02-04T03:03:42;3.70;99.90
17954;DHT22;9102;53.548;9.926;2023-02-04T03:06:13;3.70;99.90
17954;DHT22;9102;53.548;9.926;2023-02-04T03:08:42;3.70;99.90
17954;DHT22;9102;53.548;9.926;2023-02-04T03:11:09;3.60;99.90
17954;DHT22;9102;53.548;9.926;2023-02-04T03:13:37;3.60;99.90
17954;DHT22;9102;53.548;9.926;2023-02-04T03:16:06;3.60;99.90
17954;DHT22;9102;53.548;9.926;2023-02-04T03:18:35;3.50;99.90
17954;DHT22;9102;53.548;9.926;2023-02-04T03:21:03;3.40;99.90
17954;DHT22;9102;53.548;9.926;2023-02-04T03:23:31;3.40;99.90
17954;DHT22;9102;53.548;9.926;2023-02-04T03:25:58;3.30;99.90
17954;DHT22;9102;53.548;9.926;2023-02-04T03:28:25;3.30;99.90
17954;DHT22;9102;53.548;9.926;2023-02-04T03:30:52;3.20;99.90
17954;DHT22;9102;53.548;9.926;2023-02-04T03:33:22;3.10;99.90
17954;DHT22;9102;53.548;9.926;2023-02-04T03:35:49;3.20;99.90
17954;DHT22;9102;53.548;9.926;2023-02-04T03:38:16;3.10;99.90
17954;DHT22;9102;53.548;9.926;2023-02-04T03:40:43;3.10;99.90
17954;DHT22;9102;53.548;9.926;2023-02-04T03:43:10;3.10;99.90
17954;DHT22;9102;53.548;9.926;2023-02-04T03:45:37;3.10;99.90
17954;DHT22;9102;53.548;9.926;2023-02-04T03:48:04;3.00;99.90
17954;DHT22;9102;53.548;9.926;2023-02-04T03:50:32;3.00;99.90
17954;DHT22;9102;53.548;9.926;2023-02-04T03:52:59;2.90;99.90
17954;DHT22;9102;53.548;9.926;2023-02-04T03:55:25;2.80;99.90
17954;DHT22;9102;53.548;9.926;2023-02-04T03:57:52;2.80;99.90
17954;DHT22;9102;53.548;9.926;2023-02-04T04:00:19;2.80;99.90
17954;DHT22;9102;53.548;9.926;2023-02-04T04:02:46;2.90;99.90
17954;DHT22;9102;53.548;9.926;2023-02-04T04:05:13;2.90;99.90
17954;DHT22;9102;53.548;9.926;2023-02-04T04:07:41;2.90;99.90
17954;DHT22;9102;53.548;9.926;2023-02-04T04:10:09;2.90;99.90
17954;DHT22;9102;53.548;9.926;2023-02-04T04:12:36;3.00;99.90
17954;DHT22;9102;53.548;9.926;2023-02-04T04:15:04;3.10;99.90
17954;DHT22;9102;53.548;9.926;2023-02-04T04:17:31;3.20;99.90
17954;DHT22;9102;53.548;9.926;2023-02-04T04:19:58;3.20;99.90
17954;DHT22;9102;53.548;9.926;2023-02-04T04:22:25;3.20;99.90
17954;DHT22;9102;53.548;9.926;2023-02-04T04:24:53;3.20;99.90
17954;DHT22;9102;53.548;9.926;2023-02-04T04:27:20;3.20;99.90
17954;DHT22;9102;53.548;9.926;2023-02-04T04:29:46;3.20;99.90
17954;DHT22;9102;53.548;9.926;2023-02-04T04:32:13;3.20;99.90
17954;DHT22;9102;53.548;9.926;2023-02-04T04:34:40;3.30;99.90
17954;DHT22;9102;53.548;9.926;2023-02-04T04:37:07;3.30;99.90
17954;DHT22;9102;53.548;9.926;2023-02-04T04:39:34;3.20;99.90
17954;DHT22;9102;53.548;9.926;2023-02-04T04:42:02;3.20;99.90
17954;DHT22;9102;53.548;9.926;2023-02-04T04:44:28;3.30;99.90
17954;DHT22;9102;53.548;9.926;2023-02-04T04:46:55;3.30;99.90
17954;DHT22;9102;53.548;9.926;2023-02-04T04:49:22;3.30;99.90
17954;DHT22;9102;53.548;9.926;2023-02-04T04:51:49;3.40;99.90
17954;DHT22;9102;53.548;9.926;2023-02-04T04:54:16;3.40;99.90
17954;DHT22;9102;53.548;9.926;2023-02-04T04:56:43;3.40;99.90
17954;DHT22;9102;53.548;9.926;2023-02-04T04:59:11;3.50;99.90
17954;DHT22;9102;53.548;9.926;2023-02-04T05:01:38;3.50;99.90
17954;DHT22;9102;53.548;9.926;2023-02-04T05:04:05;3.50;99.90
17954;DHT22;9102;53.548;9.926;2023-02-04T05:06:32;3.50;99.90
17954;DHT22;9102;53.548;9.926;2023-02-04T05:08:58;3.40;99.90
17954;DHT22;9102;53.548;9.926;2023-02-04T05:11:25;3.40;99.90
17954;DHT22;9102;53.548;9.926;2023-02-04T05:13:52;3.50;99.90
17954;DHT22;9102;53.548;9.926;2023-02-04T05:16:20;3.50;99.90
17954;DHT22;9102;53.548;9.926;2023-02-04T05:18:47;3.50;99.90
17954;DHT22;9102;53.548;9.926;2023-02-04T05:21:13;3.50;99.90
17954;DHT22;9102;53.548;9.926;2023-02-04T05:23:40;3.40;99.90
17954;DHT22;9102;53.548;9.926;2023-02-04T05:26:07;3.40;99.90
17954;DHT22;9102;53.548;9.926;2023-02-04T05:28:34;3.40;99.90
17954;DHT22;9102;53.548;9.926;2023-02-04T05:31:01;3.30;99.90
17954;DHT22;9102;53.548;9.926;2023-02-04T05:33:29;3.30;99.90
17954;DHT22;9102;53.548;9.926;2023-02-04T05:35:56;3.10;99.90
17954;DHT22;9102;53.548;9.926;2023-02-04T05:38:22;3.10;99.90
17954;DHT22;9102;53.548;9.926;2023-02-04T05:40:49;3.10;99.90
17954;DHT22;9102;53.548;9.926;2023-02-04T05:43:16;3.00;99.90
17954;DHT22;9102;53.548;9.926;2023-02-04T05:45:43;3.00;99.90
17954;DHT22;9102;53.548;9.926;2023-02-04T05:48:10;3.00;99.90
17954;DHT22;9102;53.548;9.926;2023-02-04T05:50:38;2.90;99.90
17954;DHT22;9102;53.548;9.926;2023-02-04T05:53:05;3.00;99.90
17954;DHT22;9102;53.548;9.926;2023-02-04T05:55:31;2.90;99.90
17954;DHT22;9102;53.548;9.926;2023-02-04T05:57:58;2.90;99.90
17954;DHT22;9102;53.548;9.926;2023-02-04T06:00:25;2.80;99.90
17954;DHT22;9102;53.548;9.926;2023-02-04T06:02:52;2.80;99.90
17954;DHT22;9102;53.548;9.926;2023-02-04T06:05:18;2.80;99.90
17954;DHT22;9102;53.548;9.926;2023-02-04T06:07:48;2.80;99.90
17954;DHT22;9102;53.548;9.926;2023-02-04T06:10:15;2.80;99.90
17954;DHT22;9102;53.548;9.926;2023-02-04T06:12:42;2.80;99.90
17954;DHT22;9102;53.548;9.926;2023-02-04T06:15:09;2.70;99.90
17954;DHT22;9102;53.548;9.926;2023-02-04T06:17:37;2.70;99.90
17954;DHT22;9102;53.548;9.926;2023-02-04T06:20:05;2.60;99.90
17954;DHT22;9102;53.548;9.926;2023-02-04T06:22:32;2.60;99.90
17954;DHT22;9102;53.548;9.926;2023-02-04T06:25:00;2.60;99.90
17954;DHT22;9102;53.548;9.926;2023-02-04T06:27:27;2.60;99.90
17954;DHT22;9102;53.548;9.926;2023-02-04T06:29:54;2.60;99.90
17954;DHT22;9102;53.548;9.926;2023-02-04T06:32:21;2.60;99.90
17954;DHT22;9102;53.548;9.926;2023-02-04T06:34:49;2.50;99.90
17954;DHT22;9102;53.548;9.926;2023-02-04T06:37:15;2.50;99.90
17954;DHT22;9102;53.548;9.926;2023-02-04T06:39:42;2.50;99.90
17954;DHT22;9102;53.548;9.926;2023-02-04T06:42:10;2.50;99.90
17954;DHT22;9102;53.548;9.926;2023-02-04T06:44:37;2.60;99.90
17954;DHT22;9102;53.548;9.926;2023-02-04T06:47:04;2.60;99.90
17954;DHT22;9102;53.548;9.926;2023-02-04T06:49:31;2.60;99.90
17954;DHT22;9102;53.548;9.926;2023-02-04T06:51:58;2.70;99.90
17954;DHT22;9102;53.548;9.926;2023-02-04T06:54:24;2.70;99.90
17954;DHT22;9102;53.548;9.926;2023-02-04T06:56:51;2.70;99.90
17954;DHT22;9102;53.548;9.926;2023-02-04T06:59:19;2.70;99.90
17954;DHT22;9102;53.548;9.926;2023-02-04T07:01:46;2.80;99.90
17954;DHT22;9102;53.548;9.926;2023-02-04T07:04:13;2.80;99.90
17954;DHT22;9102;53.548;9.926;2023-02-04T07:06:40;2.80;99.90
17954;DHT22;9102;53.548;9.926;2023-02-04T07:09:06;2.80;99.90
17954;DHT22;9102;53.548;9.926;2023-02-04T07:11:33;2.90;99.90
17954;DHT22;9102;53.548;9.926;2023-02-04T07:14:00;2.80;99.90
17954;DHT22;9102;53.548;9.926;2023-02-04T07:16:28;2.80;99.90
17954;DHT22;9102;53.548;9.926;2023-02-04T07:18:55;2.80;99.90
17954;DHT22;9102;53.548;9.926;2023-02-04T07:21:22;2.80;99.90
17954;DHT22;9102;53.548;9.926;2023-02-04T07:23:49;2.80;99.90
17954;DHT22;9102;53.548;9.926;2023-02-04T07:26:16;2.80;99.90
17954;DHT22;9102;53.548;9.926;2023-02-04T07:28:43;2.80;99.90
17954;DHT22;9102;53.548;9.926;2023-02-04T07:31:10;2.80;99.90
17954;DHT22;9102;53.548;9.926;2023-02-04T07:33:38;2.80;99.90
17954;DHT22;9102;53.548;9.926;2023-02-04T07:36:06;2.80;99.90
17954;DHT22;9102;53.548;9.926;2023-02-04T07:38:33;2.90;99.90
17954;DHT22;9102;53.548;9.926;2023-02-04T07:41:02;2.90;99.90
17954;DHT22;9102;53.548;9.926;2023-02-04T07:43:29;2.90;99.90
17954;DHT22;9102;53.548;9.926;2023-02-04T07:45:56;2.90;99.90
17954;DHT22;9102;53.548;9.926;2023-02-04T07:48:22;2.90;99.90
17954;DHT22;9102;53.548;9.926;2023-02-04T07:50:51;3.00;99.90
17954;DHT22;9102;53.548;9.926;2023-02-04T07:53:17;3.00;99.90
17954;DHT22;9102;53.548;9.926;2023-02-04T07:55:44;3.00;99.90
17954;DHT22;9102;53.548;9.926;2023-02-04T07:58:11;3.10;99.90
17954;DHT22;9102;53.548;9.926;2023-02-04T08:00:38;3.10;99.90
17954;DHT22;9102;53.548;9.926;2023-02-04T08:03:04;3.20;99.90
17954;DHT22;9102;53.548;9.926;2023-02-04T08:05:31;3.20;99.90
17954;DHT22;9102;53.548;9.926;2023-02-04T08:07:59;3.30;99.90
17954;DHT22;9102;53.548;9.926;2023-02-04T08:10:27;3.30;99.90
17954;DHT22;9102;53.548;9.926;2023-02-04T08:12:54;3.30;99.90
17954;DHT22;9102;53.548;9.926;2023-02-04T08:15:21;3.40;99.90
17954;DHT22;9102;53.548;9.926;2023-02-04T08:17:47;3.40;99.90
17954;DHT22;9102;53.548;9.926;2023-02-04T08:20:15;3.40;99.90
17954;DHT22;9102;53.548;9.926;2023-02-04T08:22:43;3.50;99.90
17954;DHT22;9102;53.548;9.926;2023-02-04T08:25:11;3.60;99.90
17954;DHT22;9102;53.548;9.926;2023-02-04T08:27:38;3.60;99.90
17954;DHT22;9102;53.548;9.926;2023-02-04T08:30:07;3.60;99.90
17954;DHT22;9102;53.548;9.926;2023-02-04T08:32:34;3.60;99.90
17954;DHT22;9102;53.548;9.926;2023-02-04T08:35:01;3.70;99.90
17954;DHT22;9102;53.548;9.926;2023-02-04T08:37:27;3.70;99.90
17954;DHT22;9102;53.548;9.926;2023-02-04T08:39:54;3.70;99.90
17954;DHT22;9102;53.548;9.926;2023-02-04T08:42:22;3.70;99.90
17954;DHT22;9102;53.548;9.926;2023-02-04T08:44:49;3.70;99.90
17954;DHT22;9102;53.548;9.926;2023-02-04T08:47:16;3.70;99.90
17954;DHT22;9102;53.548;9.926;2023-02-04T08:49:43;3.70;99.90
17954;DHT22;9102;53.548;9.926;2023-02-04T08:52:10;3.80;99.90
17954;DHT22;9102;53.548;9.926;2023-02-04T08:54:36;3.80;99.90
17954;DHT22;9102;53.548;9.926;2023-02-04T08:57:03;3.80;99.90
17954;DHT22;9102;53.548;9.926;2023-02-04T08:59:31;3.90;99.90
17954;DHT22;9102;53.548;9.926;2023-02-04T09:01:58;4.00;99.90
17954;DHT22;9102;53.548;9.926;2023-02-04T09:04:25;4.00;99.90
17954;DHT22;9102;53.548;9.926;2023-02-04T09:06:53;4.00;99.90
17954;DHT22;9102;53.548;9.926;2023-02-04T09:09:20;4.10;99.90
17954;DHT22;9102;53.548;9.926;2023-02-04T09:11:47;4.00;99.90
17954;DHT22;9102;53.548;9.926;2023-02-04T09:14:14;4.10;99.90
17954;DHT22;9102;53.548;9.926;2023-02-04T09:16:43;4.20;99.90
17954;DHT22;9102;53.548;9.926;2023-02-04T09:19:09;4.20;99.90
17954;DHT22;9102;53.548;9.926;2023-02-04T09:21:40;4.20;99.90
17954;DHT22;9102;53.548;9.926;2023-02-04T09:24:07;4.30;99.90
17954;DHT22;9102;53.548;9.926;2023-02-04T09:26:34;4.30;99.90
17954;DHT22;9102;53.548;9.926;2023-02-04T09:29:01;4.30;99.90
17954;DHT22;9102;53.548;9.926;2023-02-04T09:31:27;4.30;99.90
17954;DHT22;9102;53.548;9.926;2023-02-04T09:33:56;4.30;99.90
17954;DHT22;9102;53.548;9.926;2023-02-04T09:36:24;4.30;99.90
17954;DHT22;9102;53.548;9.926;2023-02-04T09:38:53;4.30;99.90
17954;DHT22;9102;53.548;9.926;2023-02-04T09:41:20;4.40;99.90
17954;DHT22;9102;53.548;9.926;2023-02-04T09:43:47;4.30;99.90
17954;DHT22;9102;53.548;9.926;2023-02-04T09:46:18;4.30;99.90
17954;DHT22;9102;53.548;9.926;2023-02-04T09:48:46;4.40;99.90
17954;DHT22;9102;53.548;9.926;2023-02-04T09:51:17;4.40;99.90
17954;DHT22;9102;53.548;9.926;2023-02-04T09:53:45;4.40;99.90
17954;DHT22;9102;53.548;9.926;2023-02-04T09:56:13;4.40;99.90
17954;DHT22;9102;53.548;9.926;2023-02-04T09:58:40;4.40;99.90
17954;DHT22;9102;53.548;9.926;2023-02-04T10:01:12;4.50;99.90
17954;DHT22;9102;53.548;9.926;2023-02-04T10:03:41;4.50;99.90
17954;DHT22;9102;53.548;9.926;2023-02-04T10:06:12;4.60;99.90
17954;DHT22;9102;53.548;9.926;2023-02-04T10:08:41;4.60;99.90
17954;DHT22;9102;53.548;9.926;2023-02-04T10:11:09;4.70;99.90
17954;DHT22;9102;53.548;9.926;2023-02-04T10:13:38;4.70;99.90
17954;DHT22;9102;53.548;9.926;2023-02-04T10:16:12;4.80;99.90
17954;DHT22;9102;53.548;9.926;2023-02-04T10:18:39;4.80;99.90
17954;DHT22;9102;53.548;9.926;2023-02-04T10:21:14;4.90;99.90
17954;DHT22;9102;53.548;9.926;2023-02-04T10:23:45;4.90;99.90
17954;DHT22;9102;53.548;9.926;2023-02-04T10:26:14;5.10;99.90
17954;DHT22;9102;53.548;9.926;2023-02-04T10:28:41;5.10;99.90
17954;DHT22;9102;53.548;9.926;2023-02-04T10:31:27;5.20;99.90
17954;DHT22;9102;53.548;9.926;2023-02-04T10:34:05;5.40;99.90
17954;DHT22;9102;53.548;9.926;2023-02-04T10:36:32;5.60;99.90
17954;DHT22;9102;53.548;9.926;2023-02-04T10:39:01;5.70;99.90
17954;DHT22;9102;53.548;9.926;2023-02-04T10:41:27;5.70;99.90
17954;DHT22;9102;53.548;9.926;2023-02-04T10:44:02;5.90;99.90
17954;DHT22;9102;53.548;9.926;2023-02-04T10:46:29;5.90;99.90
17954;DHT22;9102;53.548;9.926;2023-02-04T10:48:56;5.80;99.90
17954;DHT22;9102;53.548;9.926;2023-02-04T10:51:23;5.60;99.90
17954;DHT22;9102;53.548;9.926;2023-02-04T10:53:50;5.80;99.90
17954;DHT22;9102;53.548;9.926;2023-02-04T10:56:36;5.90;99.90
17954;DHT22;9102;53.548;9.926;2023-02-04T10:59:03;6.10;99.90
17954;DHT22;9102;53.548;9.926;2023-02-04T11:01:30;6.10;99.90
17954;DHT22;9102;53.548;9.926;2023-02-04T11:03:57;6.10;99.90
17954;DHT22;9102;53.548;9.926;2023-02-04T11:06:24;6.20;99.90
17954;DHT22;9102;53.548;9.926;2023-02-04T11:08:51;6.40;99.90
17954;DHT22;9102;53.548;9.926;2023-02-04T11:11:22;6.40;99.90
17954;DHT22;9102;53.548;9.926;2023-02-04T11:14:00;6.60;99.90
17954;DHT22;9102;53.548;9.926;2023-02-04T11:16:29;6.70;99.90
17954;DHT22;9102;53.548;9.926;2023-02-04T11:18:59;6.60;99.90
17954;DHT22;9102;53.548;9.926;2023-02-04T11:21:28;6.60;99.90
17954;DHT22;9102;53.548;9.926;2023-02-04T11:24:19;6.60;99.90
17954;DHT22;9102;53.548;9.926;2023-02-04T11:26:48;6.60;99.90
17954;DHT22;9102;53.548;9.926;2023-02-04T11:29:29;6.70;99.90
17954;DHT22;9102;53.548;9.926;2023-02-04T11:32:04;6.70;99.90
17954;DHT22;9102;53.548;9.926;2023-02-04T11:34:45;6.80;99.90
17954;DHT22;9102;53.548;9.926;2023-02-04T11:37:16;6.80;99.90
17954;DHT22;9102;53.548;9.926;2023-02-04T11:39:48;6.70;99.90
17954;DHT22;9102;53.548;9.926;2023-02-04T11:42:23;6.60;99.90
17954;DHT22;9102;53.548;9.926;2023-02-04T11:44:57;6.40;99.90
17954;DHT22;9102;53.548;9.926;2023-02-04T11:47:25;6.30;99.90
17954;DHT22;9102;53.548;9.926;2023-02-04T11:49:56;6.30;99.90
17954;DHT22;9102;53.548;9.926;2023-02-04T11:52:23;6.30;99.90
17954;DHT22;9102;53.548;9.926;2023-02-04T11:54:54;6.50;99.90
17954;DHT22;9102;53.548;9.926;2023-02-04T11:57:21;6.60;99.90
17954;DHT22;9102;53.548;9.926;2023-02-04T11:59:48;6.70;99.90
17954;DHT22;9102;53.548;9.926;2023-02-04T12:02:18;6.60;99.90
17954;DHT22;9102;53.548;9.926;2023-02-04T12:04:53;6.70;99.90
17954;DHT22;9102;53.548;9.926;2023-02-04T12:07:25;6.70;99.90
17954;DHT22;9102;53.548;9.926;2023-02-04T12:09:52;6.70;99.90
17954;DHT22;9102;53.548;9.926;2023-02-04T12:12:25;6.80;99.90
17954;DHT22;9102;53.548;9.926;2023-02-04T12:15:02;6.90;99.90
17954;DHT22;9102;53.548;9.926;2023-02-04T12:17:31;6.90;99.90
17954;DHT22;9102;53.548;9.926;2023-02-04T12:19:58;6.70;99.90
17954;DHT22;9102;53.548;9.926;2023-02-04T12:22:24;6.90;99.90
17954;DHT22;9102;53.548;9.926;2023-02-04T12:24:51;6.80;99.90
17954;DHT22;9102;53.548;9.926;2023-02-04T12:27:18;6.70;99.90
17954;DHT22;9102;53.548;9.926;2023-02-04T12:29:45;6.70;99.90
17954;DHT22;9102;53.548;9.926;2023-02-04T12:32:12;6.70;99.90
17954;DHT22;9102;53.548;9.926;2023-02-04T12:34:40;6.70;99.90
17954;DHT22;9102;53.548;9.926;2023-02-04T12:37:07;6.50;99.90
17954;DHT22;9102;53.548;9.926;2023-02-04T12:39:34;6.60;99.90
17954;DHT22;9102;53.548;9.926;2023-02-04T12:42:00;6.60;99.90
17954;DHT22;9102;53.548;9.926;2023-02-04T12:44:29;6.40;99.90
17954;DHT22;9102;53.548;9.926;2023-02-04T12:46:55;6.50;99.90
17954;DHT22;9102;53.548;9.926;2023-02-04T12:49:22;6.40;99.90
17954;DHT22;9102;53.548;9.926;2023-02-04T12:51:51;6.30;99.90
17954;DHT22;9102;53.548;9.926;2023-02-04T12:54:18;6.30;99.90
17954;DHT22;9102;53.548;9.926;2023-02-04T12:56:44;6.40;99.90
17954;DHT22;9102;53.548;9.926;2023-02-04T12:59:13;6.30;99.90
17954;DHT22;9102;53.548;9.926;2023-02-04T13:01:40;6.20;99.90
17954;DHT22;9102;53.548;9.926;2023-02-04T13:04:07;6.10;99.90
17954;DHT22;9102;53.548;9.926;2023-02-04T13:06:34;6.10;99.90
17954;DHT22;9102;53.548;9.926;2023-02-04T13:09:02;6.00;99.90
17954;DHT22;9102;53.548;9.926;2023-02-04T13:11:29;6.00;99.90
17954;DHT22;9102;53.548;9.926;2023-02-04T13:13:56;6.10;99.90
17954;DHT22;9102;53.548;9.926;2023-02-04T13:16:22;6.00;99.90
17954;DHT22;9102;53.548;9.926;2023-02-04T13:18:50;6.00;99.90
17954;DHT22;9102;53.548;9.926;2023-02-04T13:21:17;6.00;99.90
17954;DHT22;9102;53.548;9.926;2023-02-04T13:23:44;6.00;99.90
17954;DHT22;9102;53.548;9.926;2023-02-04T13:26:12;6.00;99.90
17954;DHT22;9102;53.548;9.926;2023-02-04T13:28:39;6.00;99.90
17954;DHT22;9102;53.548;9.926;2023-02-04T13:31:06;6.20;99.90
17954;DHT22;9102;53.548;9.926;2023-02-04T13:33:33;6.30;99.90
17954;DHT22;9102;53.548;9.926;2023-02-04T13:36:00;6.30;99.90
17954;DHT22;9102;53.548;9.926;2023-02-04T13:38:27;6.40;99.90
17954;DHT22;9102;53.548;9.926;2023-02-04T13:40:53;6.40;99.90
17954;DHT22;9102;53.548;9.926;2023-02-04T13:43:22;6.40;99.90
17954;DHT22;9102;53.548;9.926;2023-02-04T13:45:49;6.40;99.90
17954;DHT22;9102;53.548;9.926;2023-02-04T13:48:16;6.50;99.90
17954;DHT22;9102;53.548;9.926;2023-02-04T13:50:45;6.40;99.90
17954;DHT22;9102;53.548;9.926;2023-02-04T13:53:13;6.30;99.90
17954;DHT22;9102;53.548;9.926;2023-02-04T13:55:40;6.30;99.90
17954;DHT22;9102;53.548;9.926;2023-02-04T13:58:07;6.10;99.90
17954;DHT22;9102;53.548;9.926;2023-02-04T14:00:35;6.10;99.90
17954;DHT22;9102;53.548;9.926;2023-02-04T14:03:03;6.10;99.90
17954;DHT22;9102;53.548;9.926;2023-02-04T14:05:29;6.00;99.90
17954;DHT22;9102;53.548;9.926;2023-02-04T14:07:56;6.00;99.90
17954;DHT22;9102;53.548;9.926;2023-02-04T14:10:23;5.90;99.90
17954;DHT22;9102;53.548;9.926;2023-02-04T14:12:51;5.90;99.90
17954;DHT22;9102;53.548;9.926;2023-02-04T14:15:18;6.00;99.90
17954;DHT22;9102;53.548;9.926;2023-02-04T14:17:47;5.80;99.90
17954;DHT22;9102;53.548;9.926;2023-02-04T14:20:14;5.80;99.90
17954;DHT22;9102;53.548;9.926;2023-02-04T14:22:41;5.80;99.90
17954;DHT22;9102;53.548;9.926;2023-02-04T14:25:08;5.70;99.90
17954;DHT22;9102;53.548;9.926;2023-02-04T14:27:35;5.70;99.90
17954;DHT22;9102;53.548;9.926;2023-02-04T14:30:08;5.70;99.90
17954;DHT22;9102;53.548;9.926;2023-02-04T14:32:35;5.60;99.90
17954;DHT22;9102;53.548;9.926;2023-02-04T14:35:04;5.50;99.90
17954;DHT22;9102;53.548;9.926;2023-02-04T14:37:31;5.50;99.90
17954;DHT22;9102;53.548;9.926;2023-02-04T14:39:58;5.50;99.90
17954;DHT22;9102;53.548;9.926;2023-02-04T14:42:24;5.50;99.90
17954;DHT22;9102;53.548;9.926;2023-02-04T14:44:51;5.50;99.90
17954;DHT22;9102;53.548;9.926;2023-02-04T14:47:18;5.50;99.90
17954;DHT22;9102;53.548;9.926;2023-02-04T14:49:45;5.40;99.90
17954;DHT22;9102;53.548;9.926;2023-02-04T14:52:13;5.40;99.90
17954;DHT22;9102;53.548;9.926;2023-02-04T14:54:41;5.40;99.90
17954;DHT22;9102;53.548;9.926;2023-02-04T14:57:08;5.40;99.90
17954;DHT22;9102;53.548;9.926;2023-02-04T14:59:38;5.40;99.90
17954;DHT22;9102;53.548;9.926;2023-02-04T15:02:05;5.40;99.90
17954;DHT22;9102;53.548;9.926;2023-02-04T15:04:32;5.40;99.90
17954;DHT22;9102;53.548;9.926;2023-02-04T15:06:59;5.30;99.90
17954;DHT22;9102;53.548;9.926;2023-02-04T15:09:29;5.40;99.90
17954;DHT22;9102;53.548;9.926;2023-02-04T15:11:56;5.40;99.90
17954;DHT22;9102;53.548;9.926;2023-02-04T15:14:23;5.50;99.90
17954;DHT22;9102;53.548;9.926;2023-02-04T15:16:50;5.50;99.90
17954;DHT22;9102;53.548;9.926;2023-02-04T15:19:17;5.60;99.90
17954;DHT22;9102;53.548;9.926;2023-02-04T15:21:45;5.60;99.90
17954;DHT22;9102;53.548;9.926;2023-02-04T15:24:12;5.60;99.90
17954;DHT22;9102;53.548;9.926;2023-02-04T15:26:40;5.50;99.90
17954;DHT22;9102;53.548;9.926;2023-02-04T15:29:10;5.40;99.90
17954;DHT22;9102;53.548;9.926;2023-02-04T15:31:37;5.40;99.90
17954;DHT22;9102;53.548;9.926;2023-02-04T15:34:03;5.30;99.90
17954;DHT22;9102;53.548;9.926;2023-02-04T15:36:30;5.30;99.90
17954;DHT22;9102;53.548;9.926;2023-02-04T15:38:57;5.30;99.90
17954;DHT22;9102;53.548;9.926;2023-02-04T15:41:24;5.20;99.90
17954;DHT22;9102;53.548;9.926;2023-02-04T15:43:52;5.20;99.90
17954;DHT22;9102;53.548;9.926;2023-02-04T15:46:19;5.20;99.90
17954;DHT22;9102;53.548;9.926;2023-02-04T15:48:47;5.30;99.90
17954;DHT22;9102;53.548;9.926;2023-02-04T15:51:14;5.20;99.90
17954;DHT22;9102;53.548;9.926;2023-02-04T15:53:41;5.10;99.90
17954;DHT22;9102;53.548;9.926;2023-02-04T15:56:08;5.10;99.90
17954;DHT22;9102;53.548;9.926;2023-02-04T15:58:35;5.10;99.90
17954;DHT22;9102;53.548;9.926;2023-02-04T16:01:04;5.10;99.90
17954;DHT22;9102;53.548;9.926;2023-02-04T16:03:30;5.10;99.90
17954;DHT22;9102;53.548;9.926;2023-02-04T16:05:57;5.00;99.90